Time;durP1;ratioP1;P1;durP2;ratioP2;P2;SDS_P1;SDS_P2;PMS_P1;PMS_P2;Temp;Humidity;BMP_temperature;BMP_pressure;BME280_temperature;BME280_humidity;BME280_pressure;Samples;Min_cycle;Max_cycle;Signal;HPM_P1;HPM_P2
2022/06/30 00:00:05;;;;;;;;;;;16.00;99.90;;;;;;5053412;28;19955;-73
2022/06/30 00:02:31;;;;;;;;;;;15.90;99.90;;;;;;5053153;28;19905;-73
2022/06/30 00:04:56;;;;;;;;;;;15.90;99.90;;;;;;5053441;28;19911;-72
2022/06/30 00:07:22;;;;;;;;;;;15.90;99.90;;;;;;5055433;28;19912;-73
2022/06/30 00:09:47;;;;;;;;;;;15.90;99.90;;;;;;5056316;28;19958;-72
2022/06/30 00:12:13;;;;;;;;;;;15.90;99.90;;;;;;5056155;28;19969;-72
2022/06/30 00:14:39;;;;;;;;;;;15.90;99.90;;;;;;5056470;28;20366;-72
2022/06/30 00:17:04;;;;;;;;;;;15.90;99.90;;;;;;5056076;28;20304;-73
2022/06/30 00:19:30;;;;;;;;;;;15.90;99.90;;;;;;5056425;28;19931;-72
2022/06/30 00:21:55;;;;;;;;;;;15.90;99.90;;;;;;5056153;28;20035;-72
2022/06/30 00:24:21;;;;;;;;;;;15.80;99.90;;;;;;5056201;28;24085;-72
2022/06/30 00:26:46;;;;;;;;;;;15.80;99.90;;;;;;5056211;28;19909;-71
2022/06/30 00:29:12;;;;;;;;;;;15.70;99.90;;;;;;5055941;28;19917;-72
2022/06/30 00:31:37;;;;;;;;;;;15.70;99.90;;;;;;5055961;28;20361;-72
2022/06/30 00:34:03;;;;;;;;;;;15.70;99.90;;;;;;5056304;28;19905;-72
2022/06/30 00:36:29;;;;;;;;;;;15.70;99.90;;;;;;5056379;28;19905;-72
2022/06/30 00:38:55;;;;;;;;;;;15.60;99.90;;;;;;5055887;28;19908;-72
2022/06/30 00:41:20;;;;;;;;;;;15.50;99.90;;;;;;5056035;28;19909;-72
2022/06/30 00:43:47;;;;;;;;;;;15.40;99.90;;;;;;5056059;28;19904;-72
2022/06/30 00:46:12;;;;;;;;;;;15.40;99.90;;;;;;5055364;28;20302;-72
2022/06/30 00:48:38;;;;;;;;;;;15.40;99.90;;;;;;5055018;28;19908;-72
2022/06/30 00:51:04;;;;;;;;;;;15.40;99.90;;;;;;5055183;28;19904;-72
2022/06/30 00:53:32;;;;;;;;;;;15.40;99.90;;;;;;5055088;28;19905;-72
2022/06/30 00:55:57;;;;;;;;;;;15.40;99.90;;;;;;5053816;28;19904;-72
2022/06/30 00:58:24;;;;;;;;;;;15.40;99.90;;;;;;5054712;28;19911;-72
2022/06/30 01:00:49;;;;;;;;;;;15.40;99.90;;;;;;5054895;28;19944;-73
2022/06/30 01:03:16;;;;;;;;;;;15.40;99.90;;;;;;5055099;28;19948;-73
2022/06/30 01:05:42;;;;;;;;;;;15.40;99.90;;;;;;5054987;28;24055;-73
2022/06/30 01:08:07;;;;;;;;;;;15.50;99.90;;;;;;5054311;28;25144;-72
2022/06/30 01:13:17;;;;;;;;;;;15.50;99.90;;;;;;5054879;28;19911;-73
2022/06/30 01:15:42;;;;;;;;;;;15.40;99.90;;;;;;5054279;28;19905;-73
2022/06/30 01:18:08;;;;;;;;;;;15.40;99.90;;;;;;5052767;28;19905;-72
2022/06/30 01:20:34;;;;;;;;;;;15.40;99.90;;;;;;5053063;28;19912;-72
2022/06/30 01:23:01;;;;;;;;;;;15.40;99.90;;;;;;5054060;28;19905;-73
2022/06/30 01:25:27;;;;;;;;;;;15.40;99.90;;;;;;5054272;28;19904;-73
2022/06/30 01:27:53;;;;;;;;;;;15.40;99.90;;;;;;5053981;28;20268;-73
2022/06/30 01:30:18;;;;;;;;;;;15.40;99.90;;;;;;5053545;28;19904;-73
2022/06/30 01:32:44;;;;;;;;;;;15.40;99.90;;;;;;5053476;28;19931;-72
2022/06/30 01:35:10;;;;;;;;;;;15.40;99.90;;;;;;5052365;28;20383;-73
2022/06/30 01:37:49;;;;;;;;;;;15.40;99.90;;;;;;5053959;28;20376;-73
2022/06/30 01:40:15;;;;;;;;;;;15.30;99.90;;;;;;5054174;28;19966;-73
2022/06/30 01:42:40;;;;;;;;;;;15.30;99.90;;;;;;5054365;28;20311;-73
2022/06/30 01:45:06;;;;;;;;;;;15.30;99.90;;;;;;5054156;28;19912;-73
2022/06/30 01:47:32;;;;;;;;;;;15.30;99.90;;;;;;5054058;28;19904;-73
2022/06/30 01:49:58;;;;;;;;;;;15.30;99.90;;;;;;5054015;28;19918;-72
2022/06/30 01:52:23;;;;;;;;;;;15.20;99.90;;;;;;5053967;28;19904;-72
2022/06/30 01:54:49;;;;;;;;;;;15.20;99.90;;;;;;5053981;28;19954;-73
2022/06/30 01:57:14;;;;;;;;;;;15.20;99.90;;;;;;5053973;28;20345;-72
2022/06/30 01:59:40;;;;;;;;;;;15.10;99.90;;;;;;5054308;28;19905;-72
2022/06/30 02:02:05;;;;;;;;;;;15.10;99.90;;;;;;5054119;28;19904;-73
2022/06/30 02:07:15;;;;;;;;;;;15.10;99.90;;;;;;5053758;28;19923;-73
2022/06/30 02:09:41;;;;;;;;;;;15.10;99.90;;;;;;5054563;28;20249;-73
2022/06/30 02:14:51;;;;;;;;;;;15.10;99.90;;;;;;5054164;28;19950;-73
2022/06/30 02:17:16;;;;;;;;;;;15.10;99.90;;;;;;5053945;28;19908;-73
2022/06/30 02:19:42;;;;;;;;;;;15.10;99.90;;;;;;5053985;28;19905;-73
2022/06/30 02:22:07;;;;;;;;;;;15.10;99.90;;;;;;5054268;28;19912;-73
2022/06/30 02:24:33;;;;;;;;;;;15.10;99.90;;;;;;5052562;28;19905;-73
2022/06/30 02:26:59;;;;;;;;;;;15.00;99.90;;;;;;5054106;28;19905;-72
2022/06/30 02:29:24;;;;;;;;;;;15.00;99.90;;;;;;5053539;28;20380;-73
2022/06/30 02:31:50;;;;;;;;;;;15.00;99.90;;;;;;5053943;28;20361;-73
2022/06/30 02:34:15;;;;;;;;;;;15.00;99.90;;;;;;5054485;28;19927;-73
2022/06/30 02:36:41;;;;;;;;;;;15.00;99.90;;;;;;5053824;28;19950;-73
2022/06/30 02:39:06;;;;;;;;;;;15.00;99.90;;;;;;5074091;28;19904;-73
2022/06/30 02:41:32;;;;;;;;;;;15.00;99.90;;;;;;5072968;28;19949;-73
2022/06/30 02:43:58;;;;;;;;;;;15.00;99.90;;;;;;5074157;28;19904;-73
2022/06/30 02:46:24;;;;;;;;;;;15.00;99.90;;;;;;5073820;28;19904;-73
2022/06/30 02:48:49;;;;;;;;;;;15.00;99.90;;;;;;5073735;28;19908;-73
2022/06/30 02:51:15;;;;;;;;;;;15.00;99.90;;;;;;5073788;28;20264;-73
2022/06/30 02:53:41;;;;;;;;;;;14.90;99.90;;;;;;5073958;28;19904;-73
2022/06/30 02:56:06;;;;;;;;;;;14.90;99.90;;;;;;5074065;28;19905;-73
2022/06/30 02:58:32;;;;;;;;;;;14.90;99.90;;;;;;5070144;28;20379;-72
2022/06/30 03:00:57;;;;;;;;;;;14.90;99.90;;;;;;5073705;28;19904;-73
2022/06/30 03:03:23;;;;;;;;;;;14.80;99.90;;;;;;5073905;28;19911;-73
2022/06/30 03:05:48;;;;;;;;;;;14.80;99.90;;;;;;5073648;28;19911;-72
2022/06/30 03:08:14;;;;;;;;;;;14.80;99.90;;;;;;5061111;28;20077;-73
2022/06/30 03:10:40;;;;;;;;;;;14.80;99.90;;;;;;5053619;28;19909;-73
2022/06/30 03:13:05;;;;;;;;;;;14.80;99.90;;;;;;5053557;28;19916;-73
2022/06/30 03:15:31;;;;;;;;;;;14.70;99.90;;;;;;5053495;28;19911;-73
2022/06/30 03:17:56;;;;;;;;;;;14.70;99.90;;;;;;5062772;28;19908;-73
2022/06/30 03:20:22;;;;;;;;;;;14.70;99.90;;;;;;5073582;28;19911;-74
2022/06/30 03:22:48;;;;;;;;;;;14.70;99.90;;;;;;5074034;28;19904;-74
2022/06/30 03:25:13;;;;;;;;;;;14.70;99.90;;;;;;5073514;28;19912;-74
2022/06/30 03:27:39;;;;;;;;;;;14.70;99.90;;;;;;5073170;28;19911;-73
2022/06/30 03:30:05;;;;;;;;;;;14.70;99.90;;;;;;5073320;28;19913;-74
2022/06/30 03:32:30;;;;;;;;;;;14.70;99.90;;;;;;5073339;28;19941;-74
2022/06/30 03:34:56;;;;;;;;;;;14.70;99.90;;;;;;5073645;28;19904;-74
2022/06/30 03:37:21;;;;;;;;;;;14.70;99.90;;;;;;5071150;28;20011;-73
2022/06/30 03:39:47;;;;;;;;;;;14.70;99.90;;;;;;5073129;28;19914;-73
2022/06/30 03:42:12;;;;;;;;;;;14.70;99.90;;;;;;5076028;28;20275;-73
2022/06/30 03:44:39;;;;;;;;;;;14.70;99.90;;;;;;5077428;28;20014;-74
2022/06/30 03:47:04;;;;;;;;;;;14.70;99.90;;;;;;5069537;28;19909;-73
2022/06/30 03:49:30;;;;;;;;;;;14.70;99.90;;;;;;5057363;28;20336;-74
2022/06/30 03:51:56;;;;;;;;;;;14.70;99.90;;;;;;5057015;28;19904;-74
2022/06/30 03:54:21;;;;;;;;;;;14.70;99.90;;;;;;5056998;28;19912;-74
2022/06/30 03:56:47;;;;;;;;;;;14.70;99.90;;;;;;5057093;28;19971;-73
2022/06/30 03:59:13;;;;;;;;;;;14.70;99.90;;;;;;5057215;28;20006;-74
2022/06/30 04:01:38;;;;;;;;;;;14.70;99.90;;;;;;5056858;28;20395;-74
2022/06/30 04:04:04;;;;;;;;;;;14.70;99.90;;;;;;5056876;28;20362;-74
2022/06/30 04:06:29;;;;;;;;;;;14.80;99.90;;;;;;5066152;28;19912;-72
2022/06/30 04:08:55;;;;;;;;;;;14.80;99.90;;;;;;5061946;28;19923;-73
2022/06/30 04:11:20;;;;;;;;;;;14.80;99.90;;;;;;5057258;28;19959;-73
2022/06/30 04:13:46;;;;;;;;;;;14.80;99.90;;;;;;5056651;28;19905;-73
2022/06/30 04:16:11;;;;;;;;;;;14.80;99.90;;;;;;5055817;28;20418;-73
2022/06/30 04:18:37;;;;;;;;;;;14.80;99.90;;;;;;5056327;28;19909;-73
2022/06/30 04:21:02;;;;;;;;;;;14.80;99.90;;;;;;5056507;28;19904;-73
2022/06/30 04:23:28;;;;;;;;;;;14.80;99.90;;;;;;5056770;28;19952;-73
2022/06/30 04:25:53;;;;;;;;;;;14.80;99.90;;;;;;5057151;28;19908;-73
2022/06/30 04:28:19;;;;;;;;;;;14.80;99.90;;;;;;5056067;28;20002;-74
2022/06/30 04:33:46;;;;;;;;;;;14.80;99.90;;;;;;5054744;28;20384;-73
2022/06/30 04:36:11;;;;;;;;;;;14.80;99.90;;;;;;5053808;28;20007;-72
2022/06/30 04:38:37;;;;;;;;;;;14.90;99.90;;;;;;5055757;28;20410;-72
2022/06/30 04:43:46;;;;;;;;;;;14.90;99.90;;;;;;5056425;28;20014;-73
2022/06/30 04:46:12;;;;;;;;;;;14.90;99.90;;;;;;5056345;28;19999;-73
2022/06/30 04:48:37;;;;;;;;;;;14.90;99.90;;;;;;5055862;28;19913;-72
2022/06/30 04:51:03;;;;;;;;;;;14.90;99.90;;;;;;5056209;28;19959;-72
2022/06/30 04:53:28;;;;;;;;;;;14.90;99.90;;;;;;5055699;28;19905;-73
2022/06/30 04:55:54;;;;;;;;;;;14.90;99.90;;;;;;5056168;28;19951;-73
2022/06/30 04:58:19;;;;;;;;;;;15.00;99.90;;;;;;5055916;28;19908;-73
2022/06/30 05:00:45;;;;;;;;;;;15.00;99.90;;;;;;5055728;28;19909;-73
2022/06/30 05:03:10;;;;;;;;;;;15.00;99.90;;;;;;5055720;28;19927;-73
2022/06/30 05:05:36;;;;;;;;;;;15.10;99.90;;;;;;5055648;28;19954;-73
2022/06/30 05:08:01;;;;;;;;;;;15.10;99.90;;;;;;5055717;28;19916;-73
2022/06/30 05:10:27;;;;;;;;;;;15.20;99.90;;;;;;5054978;28;20443;-73
2022/06/30 05:12:52;;;;;;;;;;;15.20;99.90;;;;;;5054465;28;19950;-73
2022/06/30 05:15:18;;;;;;;;;;;15.30;99.90;;;;;;5053227;28;19912;-73
2022/06/30 05:17:43;;;;;;;;;;;15.30;99.90;;;;;;5055102;28;20029;-72
2022/06/30 05:20:09;;;;;;;;;;;15.30;99.90;;;;;;5055142;28;19905;-72
2022/06/30 05:22:35;;;;;;;;;;;15.30;99.90;;;;;;5055262;28;19912;-73
2022/06/30 05:27:47;;;;;;;;;;;15.40;99.90;;;;;;5054546;28;19911;-72
2022/06/30 05:30:13;;;;;;;;;;;15.40;99.90;;;;;;5054373;28;19917;-73
2022/06/30 05:32:39;;;;;;;;;;;15.40;99.90;;;;;;5054697;28;19904;-73
2022/06/30 05:35:05;;;;;;;;;;;15.50;99.90;;;;;;5054891;28;19909;-73
2022/06/30 05:37:31;;;;;;;;;;;15.50;99.90;;;;;;5053984;28;19912;-73
2022/06/30 05:39:56;;;;;;;;;;;15.50;99.90;;;;;;5053659;28;19996;-73
2022/06/30 05:42:22;;;;;;;;;;;15.60;99.90;;;;;;5053266;28;19905;-73
2022/06/30 05:44:48;;;;;;;;;;;15.60;99.90;;;;;;5053220;28;19909;-73
2022/06/30 05:47:13;;;;;;;;;;;15.60;99.90;;;;;;5054013;28;20250;-72
2022/06/30 05:49:39;;;;;;;;;;;15.60;99.90;;;;;;5053858;28;19999;-73
2022/06/30 05:52:05;;;;;;;;;;;15.70;99.90;;;;;;5053054;28;19947;-72
2022/06/30 05:54:30;;;;;;;;;;;15.70;99.90;;;;;;5053338;28;19904;-73
2022/06/30 05:56:56;;;;;;;;;;;15.80;99.90;;;;;;5053608;28;19912;-72
2022/06/30 05:59:21;;;;;;;;;;;15.90;99.90;;;;;;5053776;28;20357;-73
2022/06/30 06:01:47;;;;;;;;;;;16.00;99.90;;;;;;5053216;28;19905;-73
2022/06/30 06:04:12;;;;;;;;;;;16.10;99.90;;;;;;5052344;28;24078;-73
2022/06/30 06:06:38;;;;;;;;;;;16.10;99.90;;;;;;5053072;28;19904;-73
2022/06/30 06:09:04;;;;;;;;;;;16.20;99.90;;;;;;5052764;28;19947;-73
2022/06/30 06:11:32;;;;;;;;;;;16.30;99.90;;;;;;5053309;28;19951;-73
2022/06/30 06:13:57;;;;;;;;;;;16.30;99.90;;;;;;5052626;28;19912;-73
2022/06/30 06:16:23;;;;;;;;;;;16.30;99.90;;;;;;5052525;28;19905;-74
2022/06/30 06:18:48;;;;;;;;;;;16.40;99.90;;;;;;5052436;28;19908;-73
2022/06/30 06:21:14;;;;;;;;;;;16.40;99.90;;;;;;5052936;28;19904;-73
2022/06/30 06:23:39;;;;;;;;;;;16.40;99.90;;;;;;5052675;28;19904;-73
2022/06/30 06:26:05;;;;;;;;;;;16.40;99.90;;;;;;5052474;28;19908;-73
2022/06/30 06:31:15;;;;;;;;;;;16.50;99.90;;;;;;5052651;28;24070;-73
2022/06/30 06:33:40;;;;;;;;;;;16.60;99.90;;;;;;5052420;28;20288;-73
2022/06/30 06:36:06;;;;;;;;;;;16.60;99.90;;;;;;5050912;28;19911;-73
2022/06/30 06:38:31;;;;;;;;;;;16.70;99.90;;;;;;5052269;28;19980;-73
2022/06/30 06:40:57;;;;;;;;;;;16.80;99.90;;;;;;5052579;28;19904;-73
2022/06/30 06:43:23;;;;;;;;;;;17.00;99.90;;;;;;5052358;28;19905;-73
2022/06/30 06:45:48;;;;;;;;;;;17.00;99.90;;;;;;5051953;28;19905;-74
2022/06/30 06:48:14;;;;;;;;;;;17.20;99.90;;;;;;5052115;28;20303;-73
2022/06/30 06:50:39;;;;;;;;;;;17.20;99.90;;;;;;5052598;28;19933;-73
2022/06/30 06:53:05;;;;;;;;;;;17.30;99.90;;;;;;5052216;28;19909;-73
2022/06/30 06:55:30;;;;;;;;;;;17.40;99.90;;;;;;5050949;28;19939;-73
2022/06/30 06:57:56;;;;;;;;;;;17.50;99.90;;;;;;5052626;28;19911;-73
2022/06/30 07:00:21;;;;;;;;;;;17.70;99.90;;;;;;5052613;28;19905;-73
2022/06/30 07:02:47;;;;;;;;;;;17.80;99.90;;;;;;5052191;28;19905;-73
2022/06/30 07:05:13;;;;;;;;;;;17.90;99.90;;;;;;5052105;28;19991;-73
2022/06/30 07:07:38;;;;;;;;;;;18.10;99.90;;;;;;5051961;28;19912;-73
2022/06/30 07:10:07;;;;;;;;;;;18.20;99.90;;;;;;5051362;28;20284;-72
2022/06/30 07:12:33;;;;;;;;;;;18.30;99.90;;;;;;5083726;28;19905;-73
2022/06/30 07:14:59;;;;;;;;;;;18.50;99.90;;;;;;5083710;28;20280;-72
2022/06/30 07:17:25;;;;;;;;;;;18.60;99.90;;;;;;5054582;28;19954;-72
2022/06/30 07:19:50;;;;;;;;;;;18.80;99.90;;;;;;5054305;28;19948;-73
2022/06/30 07:22:17;;;;;;;;;;;19.00;99.90;;;;;;5055337;28;19904;-72
2022/06/30 07:24:42;;;;;;;;;;;19.10;99.90;;;;;;5054365;28;19905;-74
2022/06/30 07:27:08;;;;;;;;;;;19.20;99.90;;;;;;5054460;28;19905;-74
2022/06/30 07:29:34;;;;;;;;;;;19.30;99.90;;;;;;5056603;28;20272;-73
2022/06/30 07:31:59;;;;;;;;;;;19.50;99.90;;;;;;5056082;28;20383;-74
2022/06/30 07:34:25;;;;;;;;;;;19.70;99.90;;;;;;5055887;28;19909;-74
2022/06/30 07:36:50;;;;;;;;;;;19.80;99.90;;;;;;5055541;28;20376;-73
2022/06/30 07:39:16;;;;;;;;;;;20.00;99.90;;;;;;5055704;28;19992;-73
2022/06/30 07:41:42;;;;;;;;;;;20.00;99.90;;;;;;5055969;28;19913;-73
2022/06/30 07:44:07;;;;;;;;;;;20.10;99.90;;;;;;5055339;28;19911;-73
2022/06/30 07:46:33;;;;;;;;;;;20.20;99.90;;;;;;5055362;28;19904;-73
2022/06/30 07:48:58;;;;;;;;;;;20.40;99.90;;;;;;5056001;28;20276;-73
2022/06/30 07:51:24;;;;;;;;;;;20.40;99.90;;;;;;5054315;28;19931;-73
2022/06/30 07:53:50;;;;;;;;;;;20.50;99.90;;;;;;5055468;28;19998;-74
2022/06/30 07:56:15;;;;;;;;;;;20.70;99.90;;;;;;5055708;28;19908;-73
2022/06/30 07:58:41;;;;;;;;;;;20.90;99.90;;;;;;5055360;28;19905;-73
2022/06/30 08:01:07;;;;;;;;;;;20.90;99.90;;;;;;5055290;28;24057;-73
2022/06/30 08:03:32;;;;;;;;;;;21.10;99.90;;;;;;5055088;28;19955;-73
2022/06/30 08:05:58;;;;;;;;;;;21.20;99.90;;;;;;5055277;28;20268;-73
2022/06/30 08:08:23;;;;;;;;;;;21.40;99.90;;;;;;5055071;28;19956;-73
2022/06/30 08:10:49;;;;;;;;;;;21.50;99.90;;;;;;5055330;28;19905;-74
2022/06/30 08:13:15;;;;;;;;;;;21.70;99.90;;;;;;5055081;28;19908;-73
2022/06/30 08:15:40;;;;;;;;;;;21.90;99.90;;;;;;5055743;28;19911;-73
2022/06/30 08:18:06;;;;;;;;;;;22.00;99.90;;;;;;5056474;28;19905;-74
2022/06/30 08:20:32;;;;;;;;;;;22.10;99.90;;;;;;5056506;28;20346;-73
2022/06/30 08:22:58;;;;;;;;;;;22.20;99.90;;;;;;5056493;28;19904;-73
2022/06/30 08:25:23;;;;;;;;;;;22.30;99.90;;;;;;5056476;28;20284;-73
2022/06/30 08:27:49;;;;;;;;;;;22.50;99.90;;;;;;5055776;28;19905;-73
2022/06/30 08:30:15;;;;;;;;;;;22.60;99.90;;;;;;5056234;28;20283;-73
2022/06/30 08:32:40;;;;;;;;;;;22.70;99.90;;;;;;5056268;28;19909;-72
2022/06/30 08:35:06;;;;;;;;;;;22.80;99.90;;;;;;5056458;28;19905;-72
2022/06/30 08:37:31;;;;;;;;;;;22.90;99.90;;;;;;5056390;28;19905;-72
2022/06/30 08:42:41;;;;;;;;;;;23.00;99.90;;;;;;5056418;28;20325;-73
2022/06/30 08:45:13;;;;;;;;;;;23.20;99.90;;;;;;5056075;28;19940;-72
2022/06/30 08:47:42;;;;;;;;;;;23.40;99.90;;;;;;5056410;28;19927;-72
2022/06/30 08:50:08;;;;;;;;;;;23.50;99.90;;;;;;5055906;28;19916;-73
2022/06/30 08:52:38;;;;;;;;;;;23.80;99.90;;;;;;5055939;28;19909;-73
2022/06/30 08:55:06;;;;;;;;;;;24.00;99.90;;;;;;5054614;28;19905;-73
2022/06/30 08:57:31;;;;;;;;;;;24.20;99.90;;;;;;5055767;28;19905;-73
2022/06/30 08:59:57;;;;;;;;;;;24.40;99.90;;;;;;5055918;28;19951;-74
2022/06/30 09:02:23;;;;;;;;;;;24.60;99.90;;;;;;5054377;28;19908;-71
2022/06/30 09:04:48;;;;;;;;;;;24.60;99.90;;;;;;5055683;28;19964;-71
2022/06/30 09:07:14;;;;;;;;;;;24.70;99.90;;;;;;5054094;28;19916;-72
2022/06/30 09:09:39;;;;;;;;;;;24.90;99.90;;;;;;5055698;28;19917;-71
2022/06/30 09:12:13;;;;;;;;;;;25.00;99.90;;;;;;5054303;28;19915;-73
2022/06/30 09:14:40;;;;;;;;;;;25.10;99.90;;;;;;5055543;28;19904;-72
2022/06/30 09:17:25;;;;;;;;;;;25.10;99.90;;;;;;5055393;28;19909;-71
2022/06/30 09:19:58;;;;;;;;;;;25.20;99.90;;;;;;5055248;28;19911;-71
2022/06/30 09:22:25;;;;;;;;;;;25.40;99.90;;;;;;5055337;28;19904;-71
2022/06/30 09:24:58;;;;;;;;;;;25.40;99.70;;;;;;5055284;28;19908;-71
2022/06/30 09:27:24;;;;;;;;;;;25.50;99.80;;;;;;5055206;28;19905;-71
2022/06/30 09:30:02;;;;;;;;;;;25.60;99.00;;;;;;5055183;28;19958;-71
2022/06/30 09:32:28;;;;;;;;;;;25.70;98.90;;;;;;5087478;28;19998;-71
2022/06/30 09:35:05;;;;;;;;;;;25.80;98.20;;;;;;5055151;28;19960;-72
2022/06/30 09:37:31;;;;;;;;;;;25.90;96.60;;;;;;5055080;28;19904;-72
2022/06/30 09:39:57;;;;;;;;;;;26.00;94.90;;;;;;5054125;28;19905;-72
2022/06/30 09:42:35;;;;;;;;;;;26.10;95.40;;;;;;5054987;28;19948;-71
2022/06/30 09:45:01;;;;;;;;;;;26.20;95.30;;;;;;5055563;28;19905;-71
2022/06/30 09:47:27;;;;;;;;;;;26.20;94.40;;;;;;5054827;28;19955;-71
2022/06/30 09:49:52;;;;;;;;;;;26.10;96.40;;;;;;5054894;28;20276;-72
2022/06/30 09:52:18;;;;;;;;;;;26.00;96.50;;;;;;5087013;28;19955;-72
2022/06/30 09:54:51;;;;;;;;;;;26.00;97.00;;;;;;5054698;28;19912;-71
2022/06/30 09:57:17;;;;;;;;;;;26.20;96.50;;;;;;5086994;28;19905;-71
2022/06/30 09:59:43;;;;;;;;;;;26.20;97.30;;;;;;5054615;28;20360;-72
2022/06/30 10:02:09;;;;;;;;;;;26.40;96.40;;;;;;5054876;28;19940;-72
2022/06/30 10:04:51;;;;;;;;;;;26.50;96.30;;;;;;5054578;28;20374;-71
2022/06/30 10:07:16;;;;;;;;;;;26.70;96.50;;;;;;5054598;28;19987;-72
2022/06/30 10:09:42;;;;;;;;;;;26.80;96.90;;;;;;5054438;28;20455;-72
2022/06/30 10:12:08;;;;;;;;;;;26.90;97.00;;;;;;5053175;28;19904;-72
2022/06/30 10:14:35;;;;;;;;;;;27.00;96.40;;;;;;5054434;28;19911;-72
2022/06/30 10:17:02;;;;;;;;;;;27.00;94.60;;;;;;5053570;28;19911;-71
2022/06/30 10:19:28;;;;;;;;;;;27.00;94.20;;;;;;5054284;28;20272;-71
2022/06/30 10:21:53;;;;;;;;;;;27.00;92.70;;;;;;5054253;28;19905;-74
2022/06/30 10:24:20;;;;;;;;;;;27.00;92.50;;;;;;5054520;28;19911;-74
2022/06/30 10:29:30;;;;;;;;;;;27.00;91.70;;;;;;5054385;28;19916;-73
2022/06/30 10:32:07;;;;;;;;;;;27.10;92.10;;;;;;5054094;28;19905;-73
2022/06/30 10:34:58;;;;;;;;;;;27.30;91.80;;;;;;5054360;28;19958;-71
2022/06/30 10:37:40;;;;;;;;;;;27.30;91.60;;;;;;5051735;28;20398;-71
2022/06/30 10:40:15;;;;;;;;;;;27.30;90.20;;;;;;5053878;28;19954;-71
2022/06/30 10:42:48;;;;;;;;;;;27.30;90.20;;;;;;5052734;28;19905;-71
2022/06/30 10:45:36;;;;;;;;;;;27.30;90.10;;;;;;5053820;28;19904;-71
2022/06/30 10:48:04;;;;;;;;;;;27.30;89.30;;;;;;5048090;28;19905;-71
2022/06/30 10:50:37;;;;;;;;;;;27.40;89.70;;;;;;5053883;28;19905;-71
2022/06/30 10:53:04;;;;;;;;;;;27.50;89.50;;;;;;5053849;28;19905;-72
2022/06/30 10:55:41;;;;;;;;;;;27.60;89.60;;;;;;5053723;28;20352;-71
2022/06/30 10:58:07;;;;;;;;;;;27.70;86.20;;;;;;5086039;28;19909;-71
2022/06/30 11:00:42;;;;;;;;;;;27.70;87.60;;;;;;5053714;28;20358;-70
2022/06/30 11:03:07;;;;;;;;;;;27.80;86.60;;;;;;5053721;28;20394;-70
2022/06/30 11:05:33;;;;;;;;;;;27.90;85.80;;;;;;5053741;28;19940;-70
2022/06/30 11:08:24;;;;;;;;;;;27.90;84.70;;;;;;5053519;28;19928;-70
2022/06/30 11:10:50;;;;;;;;;;;28.00;86.10;;;;;;5053541;28;19915;-70
2022/06/30 11:13:17;;;;;;;;;;;28.10;84.40;;;;;;5053875;28;19909;-71
2022/06/30 11:15:50;;;;;;;;;;;28.20;84.50;;;;;;5053868;28;19905;-70
2022/06/30 11:18:17;;;;;;;;;;;28.30;82.50;;;;;;5053519;28;20003;-70
2022/06/30 11:20:43;;;;;;;;;;;28.40;86.10;;;;;;5053544;28;19904;-70
2022/06/30 11:23:08;;;;;;;;;;;28.60;87.40;;;;;;5053535;28;19944;-70
2022/06/30 11:28:20;;;;;;;;;;;28.70;83.50;;;;;;5053656;28;19912;-70
2022/06/30 11:30:46;;;;;;;;;;;28.70;80.80;;;;;;5053459;28;19908;-71
2022/06/30 11:33:13;;;;;;;;;;;28.80;81.80;;;;;;5053399;28;19905;-71
2022/06/30 11:35:38;;;;;;;;;;;28.90;83.60;;;;;;5053420;28;19994;-71
2022/06/30 11:38:05;;;;;;;;;;;29.00;83.70;;;;;;5053327;28;19904;-71
2022/06/30 11:40:32;;;;;;;;;;;29.10;81.60;;;;;;5053636;28;19911;-71
2022/06/30 11:42:57;;;;;;;;;;;29.20;82.70;;;;;;5053310;28;19904;-71
2022/06/30 11:45:23;;;;;;;;;;;29.30;79.10;;;;;;5051939;28;19954;-71
2022/06/30 11:47:53;;;;;;;;;;;29.30;77.80;;;;;;5053086;28;20281;-71
2022/06/30 11:50:22;;;;;;;;;;;29.30;77.70;;;;;;5053258;28;19991;-71
2022/06/30 11:52:49;;;;;;;;;;;29.30;80.20;;;;;;5085512;28;19905;-70
2022/06/30 11:55:14;;;;;;;;;;;29.50;77.60;;;;;;5085486;28;20414;-70
2022/06/30 11:57:41;;;;;;;;;;;29.60;77.90;;;;;;5053012;28;19905;-70
2022/06/30 12:00:08;;;;;;;;;;;29.60;77.20;;;;;;5053125;28;19905;-70
2022/06/30 12:02:34;;;;;;;;;;;29.70;75.70;;;;;;5054714;28;19905;-70
2022/06/30 12:05:00;;;;;;;;;;;29.70;74.00;;;;;;5056852;28;19927;-70
2022/06/30 12:07:27;;;;;;;;;;;29.70;74.10;;;;;;5056770;28;20022;-70
2022/06/30 12:09:54;;;;;;;;;;;29.80;72.10;;;;;;5055427;28;20347;-70
2022/06/30 12:12:27;;;;;;;;;;;29.80;71.70;;;;;;5056666;28;20424;-70
2022/06/30 12:14:53;;;;;;;;;;;29.90;72.10;;;;;;5057187;28;19909;-70
2022/06/30 12:17:19;;;;;;;;;;;29.90;72.70;;;;;;5056401;28;19905;-70
2022/06/30 12:19:45;;;;;;;;;;;30.00;70.50;;;;;;5056648;28;19904;-70
2022/06/30 12:22:11;;;;;;;;;;;30.10;70.10;;;;;;5056444;28;19959;-70
2022/06/30 12:24:41;;;;;;;;;;;30.20;67.50;;;;;;5056683;28;20424;-71
2022/06/30 12:27:07;;;;;;;;;;;30.30;68.10;;;;;;5056576;28;19905;-71
2022/06/30 12:29:33;;;;;;;;;;;30.50;67.30;;;;;;5056153;28;19909;-70
2022/06/30 12:32:02;;;;;;;;;;;30.70;67.50;;;;;;5056222;28;20366;-71
2022/06/30 12:34:28;;;;;;;;;;;30.90;67.50;;;;;;5056808;28;19987;-71
2022/06/30 12:36:58;;;;;;;;;;;31.10;67.40;;;;;;5056069;28;19906;-71
2022/06/30 12:39:24;;;;;;;;;;;31.20;67.40;;;;;;5054763;28;19905;-70
2022/06/30 12:41:59;;;;;;;;;;;31.30;66.70;;;;;;5056255;28;20271;-71
2022/06/30 12:44:28;;;;;;;;;;;31.30;64.60;;;;;;5056013;28;19912;-71
2022/06/30 12:47:01;;;;;;;;;;;31.20;65.10;;;;;;5056143;28;20372;-70
2022/06/30 12:49:27;;;;;;;;;;;31.30;64.60;;;;;;5055870;28;19916;-68
2022/06/30 12:51:52;;;;;;;;;;;31.30;64.40;;;;;;5056112;28;19909;-70
2022/06/30 12:54:23;;;;;;;;;;;31.30;66.90;;;;;;5056032;28;20341;-71
2022/06/30 12:56:51;;;;;;;;;;;31.30;68.00;;;;;;5056334;28;20035;-71
2022/06/30 12:59:17;;;;;;;;;;;31.40;65.90;;;;;;5056059;28;19942;-71
2022/06/30 13:01:44;;;;;;;;;;;31.50;64.30;;;;;;5087856;28;20345;-71
2022/06/30 13:04:16;;;;;;;;;;;31.50;65.40;;;;;;5055647;28;19911;-71
2022/06/30 13:06:42;;;;;;;;;;;31.60;65.80;;;;;;5055613;28;19992;-70
2022/06/30 13:09:09;;;;;;;;;;;31.70;65.60;;;;;;5055250;28;20422;-70
2022/06/30 13:11:36;;;;;;;;;;;31.70;63.60;;;;;;5055553;28;19927;-71
2022/06/30 13:14:02;;;;;;;;;;;31.70;64.60;;;;;;5055362;28;19904;-71
2022/06/30 13:16:30;;;;;;;;;;;31.80;65.40;;;;;;5055488;28;19912;-71
2022/06/30 13:18:56;;;;;;;;;;;31.90;63.90;;;;;;5055637;28;19915;-69
2022/06/30 13:21:22;;;;;;;;;;;32.00;63.50;;;;;;5055358;28;19927;-71
2022/06/30 13:23:48;;;;;;;;;;;32.00;63.40;;;;;;5055387;28;20361;-72
2022/06/30 13:26:14;;;;;;;;;;;32.10;64.20;;;;;;5056213;28;19905;-71
2022/06/30 13:28:39;;;;;;;;;;;32.00;62.00;;;;;;5054543;28;19951;-69
2022/06/30 13:31:06;;;;;;;;;;;31.90;63.60;;;;;;5053974;28;20276;-71
2022/06/30 13:33:33;;;;;;;;;;;31.80;64.10;;;;;;5055100;28;19940;-70
2022/06/30 13:35:59;;;;;;;;;;;31.90;63.70;;;;;;5055148;28;19920;-71
2022/06/30 13:38:24;;;;;;;;;;;31.90;63.30;;;;;;5055321;28;19905;-72
2022/06/30 13:40:50;;;;;;;;;;;32.00;61.30;;;;;;5054973;28;20359;-69
2022/06/30 13:43:15;;;;;;;;;;;32.00;62.10;;;;;;5054863;28;20321;-69
2022/06/30 13:45:41;;;;;;;;;;;32.00;63.40;;;;;;5053734;28;19905;-71
2022/06/30 13:48:06;;;;;;;;;;;32.00;64.50;;;;;;5054938;28;19912;-71
2022/06/30 13:50:32;;;;;;;;;;;32.00;64.30;;;;;;5054818;28;20353;-69
2022/06/30 13:52:58;;;;;;;;;;;32.10;64.70;;;;;;5055186;28;19951;-69
2022/06/30 13:55:23;;;;;;;;;;;32.10;63.60;;;;;;5055299;28;19905;-70
2022/06/30 13:57:49;;;;;;;;;;;32.10;61.70;;;;;;5054837;28;20277;-71
2022/06/30 14:00:15;;;;;;;;;;;32.10;63.60;;;;;;5054693;28;20315;-69
2022/06/30 14:02:41;;;;;;;;;;;32.00;62.70;;;;;;5053515;28;19991;-69
2022/06/30 14:05:06;;;;;;;;;;;31.90;64.10;;;;;;5054495;28;19936;-69
2022/06/30 14:07:32;;;;;;;;;;;31.90;63.60;;;;;;5054296;28;20407;-70
2022/06/30 14:09:59;;;;;;;;;;;31.70;63.40;;;;;;5054704;28;19931;-71
2022/06/30 14:12:25;;;;;;;;;;;31.50;63.80;;;;;;5053178;28;20453;-70
2022/06/30 14:14:51;;;;;;;;;;;31.50;65.50;;;;;;5054333;28;19909;-70
2022/06/30 14:17:18;;;;;;;;;;;31.40;65.80;;;;;;5054576;28;19939;-69
2022/06/30 14:19:44;;;;;;;;;;;31.40;63.90;;;;;;5057750;28;20269;-69
2022/06/30 14:22:10;;;;;;;;;;;31.40;65.00;;;;;;5067318;28;19934;-70
2022/06/30 14:24:36;;;;;;;;;;;31.50;65.70;;;;;;5067937;28;20396;-70
2022/06/30 14:27:01;;;;;;;;;;;31.50;63.90;;;;;;5064650;28;19905;-71
2022/06/30 14:29:27;;;;;;;;;;;31.50;65.80;;;;;;5053052;28;19913;-71
2022/06/30 14:31:53;;;;;;;;;;;31.50;66.70;;;;;;5052829;28;19905;-71
2022/06/30 14:34:18;;;;;;;;;;;31.60;66.30;;;;;;5054146;28;19908;-69
2022/06/30 14:36:45;;;;;;;;;;;31.70;65.00;;;;;;5055319;28;19991;-71
2022/06/30 14:39:11;;;;;;;;;;;31.70;65.90;;;;;;5057873;28;20365;-70